createdAt,value
2019-02-10T00:01:12.589Z,100230.20
2019-02-10T00:03:40.982Z,100220.39
2019-02-10T00:06:08.468Z,100220.76
2019-02-10T00:08:35.759Z,100222.95
2019-02-10T00:11:02.987Z,100220.23
2019-02-10T00:13:34.643Z,100220.52
2019-02-10T00:16:07.783Z,100207.72
2019-02-10T00:18:35.021Z,100210.92
2019-02-10T00:21:02.264Z,100201.81
2019-02-10T00:23:29.544Z,100201.81
2019-02-10T00:25:56.773Z,100202.39
2019-02-10T00:28:24.020Z,100194.53
2019-02-10T00:30:51.307Z,100193.62
2019-02-10T00:33:18.592Z,100183.56
2019-02-10T00:35:45.941Z,100178.59
2019-02-10T00:38:13.239Z,100169.15
2019-02-10T00:40:40.481Z,100171.86
2019-02-10T00:43:07.678Z,100163.27
2019-02-10T00:45:34.955Z,100150.78
2019-02-10T00:48:02.192Z,100112.27
2019-02-10T00:50:29.414Z,100134.50
2019-02-10T00:52:56.718Z,100139.59
2019-02-10T00:55:23.956Z,100135.45
2019-02-10T00:57:51.316Z,100135.30
2019-02-10T01:00:18.660Z,100127.45
2019-02-10T01:02:45.882Z,100124.69
2019-02-10T01:05:13.139Z,100121.89
2019-02-10T01:07:40.354Z,100121.47
2019-02-10T01:10:07.696Z,100115.16
2019-02-10T01:12:35.078Z,100118.99
2019-02-10T01:15:02.414Z,100117.11
2019-02-10T01:17:29.651Z,100114.98
2019-02-10T01:19:56.891Z,100113.55
2019-02-10T01:22:24.204Z,100113.81
2019-02-10T01:24:51.535Z,100099.14
2019-02-10T01:27:18.884Z,100092.70
2019-02-10T01:29:46.122Z,100092.70
2019-02-10T01:32:13.517Z,100092.42
2019-02-10T01:34:40.756Z,100084.64
2019-02-10T01:37:07.993Z,100084.64
2019-02-10T01:39:35.252Z,100081.57
2019-02-10T01:42:02.500Z,100085.38
2019-02-10T01:44:30.120Z,100078.46
2019-02-10T01:46:57.392Z,100074.14
2019-02-10T01:49:24.640Z,100070.88
2019-02-10T01:51:51.903Z,100060.23
2019-02-10T01:54:19.145Z,100056.70
2019-02-10T01:56:46.491Z,100050.78
2019-02-10T01:59:13.808Z,100044.25
2019-02-10T02:01:41.032Z,100048.53
2019-02-10T02:04:08.324Z,100042.49
2019-02-10T02:06:35.554Z,100034.69
2019-02-10T02:09:05.148Z,100038.19
2019-02-10T02:11:32.379Z,100030.33
2019-02-10T02:13:59.664Z,100036.08
2019-02-10T02:16:26.903Z,100028.67
2019-02-10T02:18:54.152Z,100025.69
2019-02-10T02:21:21.385Z,100026.97
2019-02-10T02:23:48.623Z,100022.49
2019-02-10T02:26:15.896Z,99999.69
2019-02-10T02:28:43.133Z,100008.14
2019-02-10T02:31:10.354Z,99996.83
2019-02-10T02:33:37.594Z,99995.25
2019-02-10T02:36:04.822Z,99992.26
2019-02-10T02:38:32.056Z,99982.84
2019-02-10T02:40:59.349Z,99983.65
2019-02-10T02:43:26.570Z,99984.16
2019-02-10T02:45:53.803Z,99982.78
2019-02-10T02:48:21.102Z,99973.05
2019-02-10T02:50:48.336Z,99962.34
2019-02-10T02:53:15.560Z,99962.34
2019-02-10T02:55:42.877Z,99947.36
2019-02-10T02:58:10.216Z,99947.36
2019-02-10T03:00:37.497Z,99947.06
2019-02-10T03:03:04.768Z,99943.11
2019-02-10T03:05:32.004Z,99937.33
2019-02-10T03:07:59.220Z,99924.72
2019-02-10T03:10:26.529Z,99910.30
2019-02-10T03:12:53.753Z,99910.30
2019-02-10T03:15:20.992Z,99907.25
2019-02-10T03:17:48.292Z,99901.94
2019-02-10T03:20:15.558Z,99900.57
2019-02-10T03:22:42.741Z,99887.31
2019-02-10T03:25:10.028Z,99877.92
2019-02-10T03:27:37.275Z,99877.92
2019-02-10T03:30:04.547Z,99870.52
2019-02-10T03:32:31.836Z,99865.84
2019-02-10T03:34:59.064Z,99867.94
2019-02-10T03:37:27.483Z,99850.71
2019-02-10T03:39:55.032Z,99847.72
2019-02-10T03:42:22.449Z,99842.55
2019-02-10T03:44:49.668Z,99832.13
2019-02-10T03:47:16.924Z,99832.25
2019-02-10T03:49:44.159Z,99830.99
2019-02-10T03:52:11.379Z,99826.09
2019-02-10T03:54:38.625Z,99823.33
2019-02-10T03:57:05.836Z,99814.47
2019-02-10T03:59:33.172Z,99808.52
2019-02-10T04:02:00.451Z,99793.08
2019-02-10T04:04:27.657Z,99793.08
2019-02-10T04:06:54.928Z,99788.14
2019-02-10T04:09:22.143Z,99775.57
2019-02-10T04:11:49.347Z,99771.05
2019-02-10T04:14:16.610Z,99765.14
2019-02-10T04:16:43.830Z,99751.78
2019-02-10T04:19:11.042Z,99757.97
2019-02-10T04:21:38.306Z,99732.77
2019-02-10T04:24:05.537Z,99732.77
2019-02-10T04:26:32.746Z,99733.47
2019-02-10T04:29:00.008Z,99728.21
2019-02-10T04:31:27.223Z,99717.06
2019-02-10T04:33:54.517Z,99710.02
2019-02-10T04:36:21.770Z,99710.02
2019-02-10T04:38:48.986Z,99706.28
2019-02-10T04:41:16.340Z,99698.53
2019-02-10T04:43:43.586Z,99694.56
2019-02-10T04:46:10.806Z,99687.63
2019-02-10T04:48:38.090Z,99680.47
2019-02-10T04:51:05.307Z,99679.33
2019-02-10T04:53:32.531Z,99668.30
2019-02-10T04:56:10.222Z,99667.70
2019-02-10T04:58:37.519Z,99659.51
2019-02-10T05:01:04.753Z,99647.73
2019-02-10T05:03:31.996Z,99652.53
2019-02-10T05:05:59.243Z,99630.48
2019-02-10T05:08:26.444Z,99630.48
2019-02-10T05:10:53.722Z,99622.84
2019-02-10T05:13:20.944Z,99611.59
2019-02-10T05:15:48.148Z,99615.26
2019-02-10T05:18:15.420Z,99609.02
2019-02-10T05:20:42.652Z,99591.56
2019-02-10T05:23:09.877Z,99591.56
2019-02-10T05:25:37.139Z,99592.16
2019-02-10T05:28:04.384Z,99588.35
2019-02-10T05:30:31.594Z,99567.50
2019-02-10T05:32:58.841Z,99559.73
2019-02-10T05:35:26.078Z,99555.91
2019-02-10T05:37:53.292Z,99552.92
2019-02-10T05:40:20.584Z,99542.53
2019-02-10T05:42:47.811Z,99535.59
2019-02-10T05:45:15.023Z,99525.55
2019-02-10T05:47:42.274Z,99509.81
2019-02-10T05:50:09.564Z,99503.84
2019-02-10T05:52:36.783Z,99497.23
2019-02-10T05:55:04.102Z,99494.72
2019-02-10T05:57:31.387Z,99489.97
2019-02-10T05:59:58.673Z,99482.11
2019-02-10T06:02:32.826Z,99474.77
2019-02-10T06:05:12.084Z,99476.38
2019-02-10T06:07:39.316Z,99468.47
2019-02-10T06:10:06.757Z,99455.11
2019-02-10T06:12:34.030Z,99457.45
2019-02-10T06:15:01.242Z,99447.36
2019-02-10T06:17:28.507Z,99447.95
2019-02-10T06:19:55.733Z,99436.92
2019-02-10T06:22:22.968Z,99427.84
2019-02-10T06:24:50.234Z,99413.83
2019-02-10T06:27:17.518Z,99394.95
2019-02-10T06:29:44.739Z,99388.16
2019-02-10T06:32:11.994Z,99379.08
2019-02-10T06:34:39.210Z,99366.48
2019-02-10T06:37:06.488Z,99355.31
2019-02-10T06:39:33.716Z,99350.16
2019-02-10T06:42:00.927Z,99349.20
2019-02-10T06:44:28.189Z,99343.22
2019-02-10T06:46:55.414Z,99327.02
2019-02-10T06:49:22.649Z,99321.69
2019-02-10T06:51:49.941Z,99309.33
2019-02-10T06:54:17.162Z,99299.34
2019-02-10T06:56:44.407Z,99292.53
2019-02-10T06:59:40.059Z,99297.55
2019-02-10T07:02:26.805Z,99292.48
2019-02-10T07:04:54.057Z,99282.21
2019-02-10T07:07:21.272Z,99266.89
2019-02-10T07:09:48.526Z,99267.34
2019-02-10T07:12:52.168Z,99266.16
2019-02-10T07:15:55.793Z,99249.13
2019-02-10T07:18:59.350Z,99240.31
2019-02-10T07:21:30.655Z,99242.55
2019-02-10T07:24:33.812Z,99234.33
2019-02-10T07:27:14.411Z,99234.67
2019-02-10T07:30:32.409Z,99221.64
2019-02-10T07:33:00.349Z,99213.00
2019-02-10T07:36:06.462Z,99213.39
2019-02-10T07:39:06.088Z,99189.08
2019-02-10T07:42:25.301Z,99174.98
2019-02-10T07:45:24.714Z,99190.20
2019-02-10T07:48:13.755Z,99180.03
2019-02-10T07:51:21.197Z,99169.42
2019-02-10T07:53:57.526Z,99170.05
2019-02-10T07:56:55.960Z,99153.44
2019-02-10T07:59:34.166Z,99141.02
2019-02-10T08:02:30.089Z,99110.71
2019-02-10T08:06:09.505Z,99098.42
2019-02-10T08:09:05.366Z,99088.19
2019-02-10T08:12:01.429Z,99067.31
2019-02-10T08:15:08.274Z,99059.75
2019-02-10T08:18:09.735Z,99064.11
2019-02-10T08:21:17.511Z,99051.25
2019-02-10T08:24:08.571Z,99037.45
2019-02-10T08:26:45.614Z,99031.53
2019-02-10T08:29:40.876Z,99008.94
2019-02-10T08:32:21.312Z,98996.22
2019-02-10T08:35:35.378Z,98987.95
2019-02-10T08:38:38.551Z,98981.33
2019-02-10T08:41:24.456Z,98982.14
2019-02-10T08:44:48.464Z,98993.61
2019-02-10T08:47:33.707Z,98991.32
2019-02-10T08:50:39.861Z,98975.77
2019-02-10T08:53:11.245Z,98972.14
2019-02-10T08:55:38.473Z,98953.88
2019-02-10T08:58:05.697Z,98948.27
2019-02-10T09:00:32.951Z,98945.64
2019-02-10T09:03:00.299Z,98935.59
2019-02-10T09:05:27.555Z,98935.52
2019-02-10T09:07:55.185Z,98948.80
2019-02-10T09:10:22.432Z,98945.17
2019-02-10T09:12:49.668Z,98936.52
2019-02-10T09:15:16.925Z,98929.36
2019-02-10T09:17:44.142Z,98922.45
2019-02-10T09:20:11.488Z,98917.38
2019-02-10T09:22:38.740Z,98903.21
2019-02-10T09:25:06.827Z,98890.69
2019-02-10T09:27:34.036Z,98880.92
2019-02-10T09:30:01.305Z,98861.43
2019-02-10T09:32:28.541Z,98855.30
2019-02-10T09:34:55.779Z,98854.70
2019-02-10T09:37:23.036Z,98859.19
2019-02-10T09:39:50.887Z,98846.45
2019-02-10T09:42:18.094Z,98833.20
2019-02-10T09:44:45.384Z,98814.23
2019-02-10T09:47:12.619Z,98816.28
2019-02-10T09:49:39.912Z,98809.36
2019-02-10T09:52:07.164Z,98805.39
2019-02-10T09:54:34.373Z,98809.09
2019-02-10T09:57:01.648Z,98813.05
2019-02-10T09:59:28.956Z,98807.44
2019-02-10T10:01:56.203Z,98806.17
2019-02-10T10:04:23.438Z,98793.44
2019-02-10T10:06:50.701Z,98785.99
2019-02-10T10:09:19.679Z,98780.30
2019-02-10T10:11:47.196Z,98761.33
2019-02-10T10:14:14.421Z,98766.55
2019-02-10T10:16:41.646Z,98762.08
2019-02-10T10:19:08.892Z,98760.05
2019-02-10T10:21:36.098Z,98762.27
2019-02-10T10:24:03.361Z,98764.05
2019-02-10T10:26:30.594Z,98757.12
2019-02-10T10:28:57.806Z,98755.84
2019-02-10T10:31:25.060Z,98748.91
2019-02-10T10:33:52.280Z,98745.61
2019-02-10T10:36:19.507Z,98743.25
2019-02-10T10:38:46.883Z,98747.02
2019-02-10T10:41:14.123Z,98735.59
2019-02-10T10:43:41.356Z,98735.59
2019-02-10T10:46:08.615Z,98739.00
2019-02-10T10:48:35.852Z,98736.39
2019-02-10T10:51:03.113Z,98731.89
2019-02-10T10:53:30.366Z,98708.57
2019-02-10T10:55:57.669Z,98703.88
2019-02-10T10:58:24.898Z,98707.20
2019-02-10T11:00:52.204Z,98692.02
2019-02-10T11:03:19.502Z,98692.83
2019-02-10T11:05:46.701Z,98676.33
2019-02-10T11:08:13.956Z,98662.33
2019-02-10T11:10:41.210Z,98672.97
2019-02-10T11:13:08.426Z,98681.75
2019-02-10T11:15:35.741Z,98685.48
2019-02-10T11:18:03.014Z,98696.30
2019-02-10T11:20:30.306Z,98695.90
2019-02-10T11:22:57.526Z,98688.05
2019-02-10T11:25:24.774Z,98687.98
2019-02-10T11:27:52.001Z,98681.45
2019-02-10T11:30:19.244Z,98687.16
2019-02-10T11:32:46.456Z,98698.22
2019-02-10T11:35:13.700Z,98681.67
2019-02-10T11:37:40.964Z,98670.73
2019-02-10T11:40:08.317Z,98668.47
2019-02-10T11:42:35.551Z,98672.06
2019-02-10T11:45:03.201Z,98676.09
2019-02-10T11:47:30.409Z,98661.84
2019-02-10T11:49:57.698Z,98668.73
2019-02-10T11:52:24.990Z,98674.02
2019-02-10T11:54:52.257Z,98669.57
2019-02-10T11:57:19.553Z,98672.78
2019-02-10T11:59:46.748Z,98660.62
2019-02-10T12:02:14.073Z,98670.20
2019-02-10T12:04:41.301Z,98667.09
2019-02-10T12:07:08.516Z,98668.77
2019-02-10T12:09:35.773Z,98662.10
2019-02-10T12:12:03.044Z,98655.23
2019-02-10T12:14:30.309Z,98646.48
2019-02-10T12:16:57.528Z,98646.48
2019-02-10T12:19:24.852Z,98652.12
2019-02-10T12:21:52.099Z,98655.27
2019-02-10T12:24:19.375Z,98648.57
2019-02-10T12:26:46.626Z,98656.94
2019-02-10T12:29:13.841Z,98650.00
2019-02-10T12:31:41.134Z,98655.27
2019-02-10T12:34:08.365Z,98642.59
2019-02-10T12:36:35.580Z,98654.23
2019-02-10T12:39:04.447Z,98649.34
2019-02-10T12:41:31.674Z,98647.23
2019-02-10T12:43:58.911Z,98646.99
2019-02-10T12:46:26.161Z,98659.66
2019-02-10T12:48:53.374Z,98653.95
2019-02-10T12:51:20.609Z,98662.38
2019-02-10T12:53:47.880Z,98666.42
2019-02-10T12:56:15.107Z,98669.44
2019-02-10T12:58:42.326Z,98674.56
2019-02-10T13:01:09.588Z,98683.27
2019-02-10T13:03:36.806Z,98680.80
2019-02-10T13:06:04.022Z,98689.58
2019-02-10T13:08:31.289Z,98695.13
2019-02-10T13:10:58.514Z,98691.17
2019-02-10T13:13:25.768Z,98695.64
2019-02-10T13:15:52.973Z,98696.55
2019-02-10T13:18:20.208Z,98694.48
2019-02-10T13:20:47.451Z,98698.69
2019-02-10T13:23:14.670Z,98692.23
2019-02-10T13:25:41.891Z,98697.20
2019-02-10T13:28:09.191Z,98702.32
2019-02-10T13:30:36.428Z,98710.59
2019-02-10T13:33:03.654Z,98711.68
2019-02-10T13:35:30.903Z,98715.02
2019-02-10T13:40:38.647Z,98710.48
2019-02-10T13:43:05.863Z,98717.80
2019-02-10T13:45:33.098Z,98723.58
2019-02-10T13:48:00.377Z,98736.67
2019-02-10T13:50:27.617Z,98734.50
2019-02-10T13:52:54.821Z,98735.45
2019-02-10T13:55:22.094Z,98735.41
2019-02-10T13:57:49.329Z,98747.92
2019-02-10T14:00:17.585Z,98756.23
2019-02-10T14:02:44.837Z,98757.09
2019-02-10T14:05:12.049Z,98765.41
2019-02-10T14:07:39.281Z,98770.98
2019-02-10T14:10:06.948Z,98771.30
2019-02-10T14:12:34.277Z,98775.27
2019-02-10T14:15:01.513Z,98790.11
2019-02-10T14:17:28.852Z,98787.93
2019-02-10T14:19:56.120Z,98789.07
2019-02-10T14:22:23.344Z,98799.73
2019-02-10T14:24:50.584Z,98803.86
2019-02-10T14:27:17.900Z,98812.66
2019-02-10T14:29:45.109Z,98822.53
2019-02-10T14:32:12.309Z,98818.71
2019-02-10T14:34:39.554Z,98832.58
2019-02-10T14:37:06.766Z,98836.67
2019-02-10T14:39:34.131Z,98845.97
2019-02-10T14:42:01.644Z,98851.87
2019-02-10T14:44:28.902Z,98857.19
2019-02-10T14:46:56.136Z,98868.11
2019-02-10T14:49:23.812Z,98876.31
2019-02-10T14:51:51.090Z,98884.44
2019-02-10T14:54:18.358Z,98890.97
2019-02-10T14:56:45.570Z,98898.56
2019-02-10T14:59:13.054Z,98900.34
2019-02-10T15:01:40.263Z,98904.17
2019-02-10T15:04:07.517Z,98914.73
2019-02-10T15:06:34.738Z,98918.64
2019-02-10T15:09:01.963Z,98920.02
2019-02-10T15:11:29.221Z,98927.77
2019-02-10T15:13:56.463Z,98932.03
2019-02-10T15:16:23.836Z,98936.98
2019-02-10T15:18:51.056Z,98936.65
2019-02-10T15:21:18.357Z,98945.18
2019-02-10T15:23:45.618Z,98950.07
2019-02-10T15:26:12.859Z,98958.27
2019-02-10T15:28:40.081Z,98965.78
2019-02-10T15:31:07.362Z,98964.81
2019-02-10T15:33:34.559Z,98970.08
2019-02-10T15:36:01.777Z,98978.56
2019-02-10T15:38:29.067Z,98987.64
2019-02-10T15:40:56.357Z,98988.50
2019-02-10T15:43:23.565Z,99001.34
2019-02-10T15:45:50.852Z,98989.27
2019-02-10T15:48:18.083Z,99000.91
2019-02-10T15:50:45.284Z,99004.65
2019-02-10T15:53:12.557Z,99016.64
2019-02-10T15:55:39.839Z,99014.84
2019-02-10T15:58:07.086Z,99021.55
2019-02-10T16:00:34.475Z,99032.78
2019-02-10T16:03:01.707Z,99031.94
2019-02-10T16:05:28.936Z,99030.39
2019-02-10T16:07:56.239Z,99034.23
2019-02-10T16:10:23.454Z,99044.36
2019-02-10T16:12:50.671Z,99046.02
2019-02-10T16:15:19.288Z,99052.48
2019-02-10T16:17:46.507Z,99056.19
2019-02-10T16:20:13.744Z,99059.38
2019-02-10T16:22:41.002Z,99058.25
2019-02-10T16:25:08.736Z,99069.61
2019-02-10T16:27:35.941Z,99076.34
2019-02-10T16:30:04.819Z,99086.32
2019-02-10T16:32:32.010Z,99089.86
2019-02-10T16:34:59.256Z,99086.95
2019-02-10T16:37:26.470Z,99095.71
2019-02-10T16:39:53.767Z,99106.02
2019-02-10T16:42:21.036Z,99113.91
2019-02-10T16:44:48.261Z,99114.06
2019-02-10T16:47:15.488Z,99118.62
2019-02-10T16:49:42.750Z,99131.41
2019-02-10T16:52:09.973Z,99132.10
2019-02-10T16:54:37.188Z,99142.53
2019-02-10T16:57:04.494Z,99141.92
2019-02-10T16:59:31.723Z,99143.22
2019-02-10T17:01:58.955Z,99148.31
2019-02-10T17:04:26.215Z,99151.34
2019-02-10T17:06:53.431Z,99147.87
2019-02-10T17:09:20.686Z,99161.53
2019-02-10T17:11:47.913Z,99157.85
2019-02-10T17:14:15.138Z,99164.50
2019-02-10T17:16:42.416Z,99170.82
2019-02-10T17:19:09.650Z,99179.84
2019-02-10T17:21:36.868Z,99187.69
2019-02-10T17:24:04.135Z,99197.81
2019-02-10T17:26:31.345Z,99199.31
2019-02-10T17:28:58.564Z,99195.15
2019-02-10T17:31:25.871Z,99210.93
2019-02-10T17:33:53.197Z,99222.55
2019-02-10T17:36:20.426Z,99223.09
2019-02-10T17:38:47.676Z,99234.55
2019-02-10T17:41:27.598Z,99235.05
2019-02-10T17:43:54.853Z,99236.95
2019-02-10T17:46:22.072Z,99239.13
2019-02-10T17:48:49.274Z,99241.20
2019-02-10T17:51:16.533Z,99246.10
2019-02-10T17:53:43.741Z,99254.55
2019-02-10T17:56:10.999Z,99264.01
2019-02-10T17:58:38.300Z,99266.20
2019-02-10T18:01:05.504Z,99276.00
2019-02-10T18:03:32.729Z,99287.33
2019-02-10T18:05:59.992Z,99288.68
2019-02-10T18:08:27.220Z,99293.61
2019-02-10T18:10:54.450Z,99293.67
2019-02-10T18:13:21.686Z,99302.38
2019-02-10T18:16:17.656Z,99315.44
2019-02-10T18:18:59.413Z,99314.39
2019-02-10T18:21:52.116Z,99325.84
2019-02-10T18:24:35.180Z,99337.54
2019-02-10T18:27:24.657Z,99343.05
2019-02-10T18:30:10.113Z,99359.64
2019-02-10T18:32:46.471Z,99359.55
2019-02-10T18:35:32.393Z,99360.42
2019-02-10T18:38:31.224Z,99360.13
2019-02-10T18:41:39.201Z,99369.21
2019-02-10T18:44:10.753Z,99380.72
2019-02-10T18:46:49.541Z,99383.72
2019-02-10T18:49:45.447Z,99387.32
2019-02-10T18:52:32.328Z,99395.51
2019-02-10T18:55:28.197Z,99405.16
2019-02-10T18:58:17.557Z,99408.67
2019-02-10T19:01:10.109Z,99417.20
2019-02-10T19:03:55.568Z,99417.88
2019-02-10T19:06:43.578Z,99439.69
2019-02-10T19:09:30.432Z,99440.48
2019-02-10T19:12:07.178Z,99440.64
2019-02-10T19:14:50.663Z,99451.30
2019-02-10T19:17:34.699Z,99457.59
2019-02-10T19:20:09.665Z,99462.84
2019-02-10T19:23:08.292Z,99471.69
2019-02-10T19:25:58.109Z,99477.36
2019-02-10T19:28:54.047Z,99499.98
2019-02-10T19:31:40.804Z,99512.45
2019-02-10T19:34:16.458Z,99524.64
2019-02-10T19:37:09.029Z,99527.13
2019-02-10T19:39:54.253Z,99540.25
2019-02-10T19:42:28.373Z,99541.98
2019-02-10T19:45:20.581Z,99549.58
2019-02-10T19:48:06.052Z,99552.08
2019-02-10T19:50:52.807Z,99571.81
2019-02-10T19:53:31.541Z,99565.63
2019-02-10T19:56:16.613Z,99579.27
2019-02-10T19:59:18.577Z,99589.44
2019-02-10T20:01:52.757Z,99598.16
2019-02-10T20:04:45.624Z,99608.97
2019-02-10T20:07:23.509Z,99622.64
2019-02-10T20:10:09.187Z,99628.02
2019-02-10T20:12:44.527Z,99633.55
2019-02-10T20:15:35.032Z,99641.38
2019-02-10T20:18:17.840Z,99641.10
2019-02-10T20:20:52.703Z,99652.68
2019-02-10T20:23:29.554Z,99661.20
2019-02-10T20:26:14.870Z,99666.48
2019-02-10T20:29:00.364Z,99680.86
2019-02-10T20:31:47.122Z,99681.83
2019-02-10T20:34:24.480Z,99696.16
2019-02-10T20:37:11.125Z,99704.27
2019-02-10T20:39:56.437Z,99719.39
2019-02-10T20:42:33.379Z,99718.73
2019-02-10T20:45:29.329Z,99729.60
2019-02-10T20:48:24.729Z,99735.48
2019-02-10T20:51:20.257Z,99747.38
2019-02-10T20:54:15.895Z,99762.64
2019-02-10T20:57:02.698Z,99768.89
2019-02-10T20:59:35.754Z,99775.67
2019-02-10T21:02:09.990Z,99788.47
2019-02-10T21:04:49.006Z,99792.32
2019-02-10T21:07:34.073Z,99802.92
2019-02-10T21:10:33.073Z,99809.52
2019-02-10T21:13:11.209Z,99814.48
2019-02-10T21:15:56.635Z,99821.29
2019-02-10T21:18:30.498Z,99827.81
2019-02-10T21:21:11.223Z,99835.58
2019-02-10T21:23:50.796Z,99840.51
2019-02-10T21:26:34.815Z,99840.02
2019-02-10T21:29:20.099Z,99852.09
2019-02-10T21:32:09.710Z,99862.97
2019-02-10T21:34:53.960Z,99875.12
2019-02-10T21:37:26.185Z,99882.57
2019-02-10T21:40:15.586Z,99887.89
2019-02-10T21:43:18.484Z,99892.86
2019-02-10T21:45:51.582Z,99904.13
2019-02-10T21:48:44.069Z,99909.41
2019-02-10T21:51:11.310Z,99917.24
2019-02-10T21:53:38.551Z,99923.52
2019-02-10T21:56:05.758Z,99933.88
2019-02-10T21:58:33.043Z,99947.13
2019-02-10T22:01:00.257Z,99952.95
2019-02-10T22:03:27.463Z,99953.83
2019-02-10T22:05:54.856Z,99958.43
2019-02-10T22:08:22.075Z,99967.93
2019-02-10T22:10:49.308Z,99968.78
2019-02-10T22:13:16.578Z,99974.22
2019-02-10T22:15:43.783Z,99977.14
2019-02-10T22:18:11.019Z,99987.44
2019-02-10T22:20:38.270Z,99992.50
2019-02-10T22:23:05.488Z,100000.41
2019-02-10T22:25:32.704Z,100009.73
2019-02-10T22:27:59.960Z,100016.01
2019-02-10T22:30:27.247Z,100023.25
2019-02-10T22:32:54.501Z,100027.70
2019-02-10T22:35:21.764Z,100029.53
2019-02-10T22:37:48.983Z,100045.91
2019-02-10T22:40:16.200Z,100044.18
2019-02-10T22:42:45.710Z,100050.67
2019-02-10T22:45:12.675Z,100055.16
2019-02-10T22:47:39.925Z,100058.87
2019-02-10T22:50:09.063Z,100066.46
2019-02-10T22:52:36.376Z,100074.51
2019-02-10T22:55:03.888Z,100077.94
2019-02-10T22:57:31.088Z,100090.44
2019-02-10T22:59:58.304Z,100095.27
2019-02-10T23:02:25.566Z,100095.03
2019-02-10T23:04:52.784Z,100109.82
2019-02-10T23:07:20.007Z,100114.97
2019-02-10T23:09:47.245Z,100112.96
2019-02-10T23:12:14.457Z,100110.11
2019-02-10T23:14:41.680Z,100127.70
2019-02-10T23:17:08.944Z,100145.81
2019-02-10T23:19:36.176Z,100145.81
2019-02-10T23:22:03.384Z,100148.88
2019-02-10T23:24:30.630Z,100163.97
2019-02-10T23:26:57.855Z,100162.27
2019-02-10T23:29:25.063Z,100172.83
2019-02-10T23:31:52.344Z,100172.94
2019-02-10T23:34:19.585Z,100183.70
2019-02-10T23:36:46.796Z,100191.43
2019-02-10T23:39:14.008Z,100200.13
2019-02-10T23:41:41.272Z,100212.80
2019-02-10T23:44:08.561Z,100215.19
2019-02-10T23:46:35.771Z,100225.03
2019-02-10T23:49:03.020Z,100226.27
2019-02-10T23:51:30.237Z,100233.17
2019-02-10T23:53:57.439Z,100239.81
2019-02-10T23:56:24.695Z,100249.50
2019-02-10T23:58:51.895Z,100255.69
